createdAt,value
2023-02-02T00:02:55.722Z,2.98
2023-02-02T00:05:58.171Z,2.98
2023-02-02T00:09:01.371Z,2.98
2023-02-02T00:12:03.333Z,2.97
2023-02-02T00:15:05.544Z,2.92
2023-02-02T00:18:07.571Z,2.96
2023-02-02T00:21:09.453Z,2.98
2023-02-02T00:24:12.533Z,3.03
2023-02-02T00:27:14.752Z,3.02
2023-02-02T00:30:16.763Z,3.01
2023-02-02T00:33:18.736Z,2.99
2023-02-02T00:36:21.351Z,2.98
2023-02-02T00:39:26.189Z,2.85
2023-02-02T00:42:28.924Z,2.89
2023-02-02T00:45:31.079Z,2.92
2023-02-02T00:48:33.220Z,2.84
2023-02-02T00:51:36.093Z,2.86
2023-02-02T00:54:38.036Z,2.99
2023-02-02T00:57:41.358Z,3.13
2023-02-02T01:00:43.436Z,3.20
2023-02-02T01:03:45.471Z,3.38
2023-02-02T01:06:47.471Z,3.47
2023-02-02T01:09:49.542Z,3.51
2023-02-02T01:12:51.766Z,3.50
2023-02-02T01:15:57.179Z,3.46
2023-02-02T01:19:01.212Z,3.45
2023-02-02T01:22:03.591Z,3.41
2023-02-02T01:25:05.748Z,3.36
2023-02-02T01:28:07.984Z,3.29
2023-02-02T01:31:12.013Z,3.28
2023-02-02T01:34:14.252Z,3.19
2023-02-02T01:37:16.372Z,3.15
2023-02-02T01:40:19.023Z,3.15
2023-02-02T01:43:22.470Z,3.12
2023-02-02T01:46:28.080Z,3.13
2023-02-02T01:49:30.346Z,3.14
2023-02-02T01:52:33.523Z,3.13
2023-02-02T01:55:38.364Z,3.04
2023-02-02T01:58:42.263Z,3.02
2023-02-02T02:01:45.846Z,3.02
2023-02-02T02:04:49.429Z,3.11
2023-02-02T02:07:52.018Z,3.22
2023-02-02T02:10:54.338Z,3.22
2023-02-02T02:14:17.008Z,3.24
2023-02-02T02:17:19.590Z,3.24
2023-02-02T02:20:49.890Z,3.21
2023-02-02T02:24:20.542Z,3.19
2023-02-02T02:27:41.858Z,3.19
2023-02-02T02:31:17.621Z,3.21
2023-02-02T02:34:30.934Z,3.14
2023-02-02T02:37:52.567Z,3.15
2023-02-02T02:40:58.587Z,3.12
2023-02-02T02:44:05.192Z,3.06
2023-02-02T02:47:10.345Z,3.05
2023-02-02T02:50:13.611Z,3.05
2023-02-02T02:53:21.440Z,2.98
2023-02-02T02:56:33.025Z,2.98
2023-02-02T02:59:45.190Z,2.92
2023-02-02T03:02:55.422Z,2.88
2023-02-02T03:06:10.939Z,2.82
2023-02-02T03:09:16.426Z,2.78
2023-02-02T03:12:19.614Z,2.77
2023-02-02T03:15:22.550Z,2.78
2023-02-02T03:18:27.948Z,2.79
2023-02-02T03:21:30.631Z,2.76
2023-02-02T03:24:36.589Z,2.72
2023-02-02T03:27:41.013Z,2.73
2023-02-02T03:30:47.853Z,2.70
2023-02-02T03:33:50.977Z,2.72
2023-02-02T03:36:54.392Z,2.70
2023-02-02T03:39:59.103Z,2.67
2023-02-02T03:43:02.212Z,2.65
2023-02-02T03:46:06.378Z,2.62
2023-02-02T03:49:09.829Z,2.56
2023-02-02T03:52:16.194Z,2.49
2023-02-02T03:55:19.087Z,2.42
2023-02-02T03:58:23.913Z,2.39
2023-02-02T04:01:30.327Z,2.34
2023-02-02T04:04:35.523Z,2.29
2023-02-02T04:07:39.043Z,2.26
2023-02-02T04:10:46.324Z,2.19
2023-02-02T04:13:50.227Z,2.18
2023-02-02T04:16:52.605Z,2.19
2023-02-02T04:20:01.026Z,2.13
2023-02-02T04:23:04.530Z,2.11
2023-02-02T04:26:11.629Z,2.04
2023-02-02T04:29:16.144Z,2.08
2023-02-02T04:32:20.043Z,2.10
2023-02-02T04:35:23.107Z,2.03
2023-02-02T04:38:30.130Z,1.99
2023-02-02T04:41:36.488Z,1.97
2023-02-02T04:44:44.843Z,1.95
2023-02-02T04:47:48.318Z,1.89
2023-02-02T04:50:58.583Z,1.84
2023-02-02T04:54:03.320Z,1.86
2023-02-02T04:57:07.276Z,1.87
2023-02-02T05:00:14.799Z,1.91
2023-02-02T05:03:21.251Z,1.91
2023-02-02T05:06:25.054Z,1.90
2023-02-02T05:09:28.102Z,1.82
2023-02-02T05:12:33.620Z,1.76
2023-02-02T05:15:37.739Z,1.73
2023-02-02T05:18:40.930Z,1.73
2023-02-02T05:21:51.018Z,1.71
2023-02-02T05:24:54.817Z,1.70
2023-02-02T05:27:58.504Z,1.68
2023-02-02T05:31:01.708Z,1.65
2023-02-02T05:34:05.412Z,1.65
2023-02-02T05:37:07.981Z,1.58
2023-02-02T05:40:11.788Z,1.58
2023-02-02T05:43:17.866Z,1.59
2023-02-02T05:46:28.417Z,1.59
2023-02-02T05:49:32.558Z,1.57
2023-02-02T05:52:36.267Z,1.54
2023-02-02T05:55:39.047Z,1.52
2023-02-02T05:58:41.864Z,1.48
2023-02-02T06:01:51.147Z,1.46
2023-02-02T06:04:56.945Z,1.42
2023-02-02T06:07:59.254Z,1.40
2023-02-02T06:11:14.347Z,1.40
2023-02-02T06:14:19.929Z,1.37
2023-02-02T06:17:26.874Z,1.36
2023-02-02T06:20:30.385Z,1.40
2023-02-02T06:23:34.808Z,1.52
2023-02-02T06:26:42.074Z,1.59
2023-02-02T06:29:51.232Z,1.60
2023-02-02T06:32:59.028Z,1.66
2023-02-02T06:36:04.268Z,1.66
2023-02-02T06:39:10.949Z,1.69
2023-02-02T06:42:21.392Z,1.77
2023-02-02T06:45:27.589Z,1.85
2023-02-02T06:48:31.396Z,1.89
2023-02-02T06:51:36.121Z,1.93
2023-02-02T06:54:43.281Z,1.94
2023-02-02T06:57:47.321Z,2.03
2023-02-02T07:00:52.461Z,2.07
2023-02-02T07:03:57.906Z,2.08
2023-02-02T07:07:03.639Z,2.10
2023-02-02T07:10:08.486Z,2.14
2023-02-02T07:13:13.420Z,2.18
2023-02-02T07:16:25.125Z,2.20
2023-02-02T07:19:31.999Z,2.26
2023-02-02T07:22:39.695Z,2.32
2023-02-02T07:25:45.865Z,2.36
2023-02-02T07:28:55.912Z,2.42
2023-02-02T07:31:58.951Z,2.56
2023-02-02T07:35:05.602Z,2.69
2023-02-02T07:38:08.351Z,2.83
2023-02-02T07:41:11.372Z,2.89
2023-02-02T07:44:22.359Z,2.99
2023-02-02T07:47:26.514Z,3.25
2023-02-02T07:50:34.142Z,3.52
2023-02-02T07:53:40.616Z,3.86
2023-02-02T07:56:46.304Z,3.95
2023-02-02T07:59:51.322Z,4.00
2023-02-02T08:02:55.714Z,4.19
2023-02-02T08:06:01.495Z,4.17
2023-02-02T08:09:09.709Z,4.25
2023-02-02T08:12:24.882Z,4.40
2023-02-02T08:15:30.528Z,4.53
2023-02-02T08:18:35.374Z,4.71
2023-02-02T08:21:42.040Z,4.89
2023-02-02T08:24:47.364Z,5.14
2023-02-02T08:27:55.990Z,5.41
2023-02-02T08:31:04.351Z,5.86
2023-02-02T08:34:10.581Z,6.11
2023-02-02T08:37:14.286Z,6.15
2023-02-02T08:40:17.600Z,6.28
2023-02-02T08:43:22.627Z,6.29
2023-02-02T08:46:27.847Z,6.35
2023-02-02T08:49:32.638Z,6.59
2023-02-02T08:52:37.435Z,6.62
2023-02-02T08:55:46.980Z,6.89
2023-02-02T08:58:53.586Z,6.61
2023-02-02T09:01:57.060Z,6.27
2023-02-02T09:05:00.529Z,6.59
2023-02-02T09:08:06.084Z,6.50
2023-02-02T09:11:20.953Z,6.06
2023-02-02T09:14:23.409Z,5.99
2023-02-02T09:17:27.377Z,5.93
2023-02-02T09:20:32.171Z,5.86
2023-02-02T09:23:42.028Z,5.80
2023-02-02T09:26:46.129Z,5.86
2023-02-02T09:29:51.789Z,5.79
2023-02-02T09:32:54.543Z,5.67
2023-02-02T09:36:06.696Z,5.60
2023-02-02T09:39:13.355Z,5.54
2023-02-02T09:42:38.064Z,5.62
2023-02-02T09:45:53.671Z,5.59
2023-02-02T09:49:06.864Z,5.67
2023-02-02T09:52:14.652Z,5.73
2023-02-02T09:55:24.409Z,5.79
2023-02-02T09:58:27.207Z,5.91
2023-02-02T10:01:38.815Z,6.04
2023-02-02T10:04:42.785Z,6.12
2023-02-02T10:07:49.899Z,6.26
2023-02-02T10:10:55.309Z,6.27
2023-02-02T10:14:05.808Z,6.01
2023-02-02T10:17:30.536Z,6.00
2023-02-02T10:20:49.562Z,5.85
2023-02-02T10:23:56.957Z,5.69
2023-02-02T10:27:07.738Z,5.65
2023-02-02T10:30:20.242Z,5.90
2023-02-02T10:33:44.940Z,6.00
2023-02-02T10:37:00.321Z,6.34
2023-02-02T10:40:26.225Z,6.60
2023-02-02T10:43:48.955Z,6.81
2023-02-02T10:46:55.914Z,6.84
2023-02-02T10:50:08.885Z,6.68
2023-02-02T10:53:18.856Z,6.75
2023-02-02T10:56:44.171Z,6.67
2023-02-02T10:59:55.880Z,6.73
2023-02-02T11:03:01.768Z,7.02
2023-02-02T11:06:27.664Z,6.99
2023-02-02T11:09:37.699Z,7.32
2023-02-02T11:12:48.163Z,7.27
2023-02-02T11:15:51.326Z,7.46
2023-02-02T11:18:58.443Z,7.49
2023-02-02T11:22:03.790Z,7.30
2023-02-02T11:25:08.622Z,7.27
2023-02-02T11:28:21.247Z,7.41
2023-02-02T11:31:37.295Z,7.14
2023-02-02T11:34:41.651Z,7.15
2023-02-02T11:37:58.429Z,7.04
2023-02-02T11:41:06.313Z,6.96
2023-02-02T11:44:17.482Z,6.73
2023-02-02T11:47:29.693Z,6.52
2023-02-02T11:50:43.965Z,6.65
2023-02-02T11:54:05.642Z,6.50
2023-02-02T12:01:13.049Z,6.57
2023-02-02T12:04:20.601Z,6.64
2023-02-02T12:07:26.704Z,6.49
2023-02-02T12:10:45.473Z,6.51
2023-02-02T12:14:12.864Z,6.44
2023-02-02T12:17:34.187Z,6.23
2023-02-02T12:24:59.035Z,6.15
2023-02-02T12:28:13.964Z,5.97
2023-02-02T12:31:38.378Z,6.00
2023-02-02T12:34:45.126Z,6.06
2023-02-02T12:37:58.234Z,6.06
2023-02-02T12:41:19.958Z,6.00
2023-02-02T12:52:21.123Z,6.03
2023-02-02T12:59:19.359Z,5.93
2023-02-02T13:06:10.415Z,5.94
2023-02-02T13:13:12.705Z,5.98
2023-02-02T13:16:16.569Z,6.03
2023-02-02T13:19:29.018Z,6.10
2023-02-02T13:22:42.319Z,6.05
2023-02-02T13:25:49.533Z,6.00
2023-02-02T13:29:30.017Z,6.00
2023-02-02T13:32:39.135Z,5.89
2023-02-02T13:39:19.942Z,5.92
2023-02-02T13:42:32.645Z,5.94
2023-02-02T13:46:13.670Z,6.01
2023-02-02T13:49:52.251Z,5.99
2023-02-02T13:53:21.825Z,6.06
2023-02-02T13:56:40.551Z,6.09
2023-02-02T13:59:49.269Z,6.06
2023-02-02T14:02:55.742Z,5.95
2023-02-02T14:06:19.094Z,5.95
2023-02-02T14:09:30.054Z,6.11
2023-02-02T14:12:46.090Z,6.08
2023-02-02T14:16:07.460Z,5.91
2023-02-02T14:19:25.022Z,6.10
2023-02-02T14:23:02.609Z,6.17
2023-02-02T14:30:02.612Z,5.91
2023-02-02T14:33:25.829Z,5.89
2023-02-02T14:36:37.729Z,5.79
2023-02-02T14:43:48.676Z,5.86
2023-02-02T14:46:55.287Z,5.93
2023-02-02T15:04:12.198Z,5.91
2023-02-02T15:07:40.174Z,5.79
2023-02-02T15:10:46.895Z,5.76
2023-02-02T15:14:00.152Z,5.68
2023-02-02T15:17:35.434Z,5.67
2023-02-02T15:20:50.057Z,5.55
2023-02-02T15:24:00.055Z,5.44
2023-02-02T15:27:08.859Z,5.28
2023-02-02T15:30:16.912Z,5.14
2023-02-02T15:33:37.877Z,5.11
2023-02-02T15:36:45.581Z,4.98
2023-02-02T15:39:52.562Z,4.93
2023-02-02T15:43:12.344Z,4.89
2023-02-02T15:46:38.015Z,4.85
2023-02-02T15:49:46.590Z,4.73
2023-02-02T15:52:57.873Z,4.69
2023-02-02T15:59:28.139Z,4.56
2023-02-02T16:02:35.717Z,4.49
2023-02-02T16:05:38.796Z,4.37
2023-02-02T16:08:42.308Z,4.27
2023-02-02T16:11:51.847Z,4.10
2023-02-02T16:15:08.058Z,3.98
2023-02-02T16:18:23.225Z,3.92
2023-02-02T16:21:45.100Z,3.84
2023-02-02T16:24:54.085Z,3.84
2023-02-02T16:28:06.509Z,3.83
2023-02-02T16:34:48.315Z,3.91
2023-02-02T16:37:57.320Z,4.00
2023-02-02T17:07:43.634Z,3.70
2023-02-02T17:11:38.530Z,3.65
2023-02-02T17:22:42.508Z,3.51
2023-02-02T17:40:23.408Z,3.58
2023-02-02T17:50:55.578Z,3.70
2023-02-02T17:54:18.833Z,3.72
2023-02-02T17:57:24.188Z,3.74
2023-02-02T18:00:32.136Z,3.89
2023-02-02T18:17:35.380Z,3.74
2023-02-02T18:27:41.245Z,3.69
2023-02-02T18:42:18.951Z,3.48
2023-02-02T18:45:36.601Z,3.53
2023-02-02T19:06:32.418Z,3.55
2023-02-02T19:09:42.942Z,3.52
2023-02-02T19:13:05.947Z,3.55
2023-02-02T19:16:27.612Z,3.53
2023-02-02T19:26:26.633Z,3.60
2023-02-02T19:33:11.915Z,3.46
2023-02-02T19:43:33.674Z,3.47
2023-02-02T19:46:49.059Z,3.39
2023-02-02T19:53:24.635Z,3.29
2023-02-02T19:57:08.658Z,3.25
2023-02-02T20:00:51.012Z,3.26
2023-02-02T20:04:08.827Z,3.25
2023-02-02T20:07:17.139Z,3.26
2023-02-02T20:14:09.816Z,3.28
2023-02-02T20:24:42.248Z,2.99
2023-02-02T20:28:00.135Z,3.05
2023-02-02T20:31:26.500Z,3.05
2023-02-02T20:42:14.699Z,3.03
2023-02-02T20:53:04.333Z,3.05
2023-02-02T20:56:21.620Z,2.96
2023-02-02T21:14:44.744Z,2.81
2023-02-02T21:43:24.078Z,2.64
2023-02-02T21:47:03.251Z,2.62
2023-02-02T21:50:28.863Z,2.70
2023-02-02T22:01:19.708Z,2.68
2023-02-02T22:04:38.281Z,2.68
2023-02-02T22:29:44.444Z,2.46
2023-02-02T22:40:16.230Z,2.56
2023-02-02T22:47:01.724Z,2.55
2023-02-02T22:50:06.863Z,2.53
2023-02-02T22:53:20.048Z,2.44
2023-02-02T22:56:34.572Z,2.44
2023-02-02T23:10:02.254Z,2.31
2023-02-02T23:34:22.522Z,1.90
2023-02-02T23:44:35.203Z,1.90
2023-02-02T23:48:10.088Z,1.92
2023-02-02T23:55:25.553Z,1.95
2023-02-02T23:59:06.946Z,1.91
